sensor_id;sensor_type;location;lat;lon;timestamp;P1;durP1;ratioP1;P2;durP2;ratioP2
34645;SDS011;20857;47.808;12.482;2022-10-28T00:01:12;4.63;;;1.98;;
34645;SDS011;20857;47.808;12.482;2022-10-28T00:03:41;3.45;;;1.40;;
34645;SDS011;20857;47.808;12.482;2022-10-28T00:06:10;2.53;;;1.48;;
34645;SDS011;20857;47.808;12.482;2022-10-28T00:11:06;3.33;;;1.75;;
34645;SDS011;20857;47.808;12.482;2022-10-28T00:13:34;6.63;;;1.83;;
34645;SDS011;20857;47.808;12.482;2022-10-28T00:16:07;2.15;;;1.20;;
34645;SDS011;20857;47.808;12.482;2022-10-28T00:18:41;2.03;;;1.50;;
34645;SDS011;20857;47.808;12.482;2022-10-28T00:21:11;8.45;;;1.98;;
34645;SDS011;20857;47.808;12.482;2022-10-28T00:23:39;5.35;;;1.77;;
34645;SDS011;20857;47.808;12.482;2022-10-28T00:26:09;6.63;;;2.08;;
34645;SDS011;20857;47.808;12.482;2022-10-28T00:28:43;5.47;;;1.95;;
34645;SDS011;20857;47.808;12.482;2022-10-28T00:31:15;4.68;;;1.75;;
34645;SDS011;20857;47.808;12.482;2022-10-28T00:33:41;2.95;;;1.50;;
34645;SDS011;20857;47.808;12.482;2022-10-28T00:36:14;7.57;;;1.50;;
34645;SDS011;20857;47.808;12.482;2022-10-28T00:38:45;5.07;;;1.40;;
34645;SDS011;20857;47.808;12.482;2022-10-28T00:41:13;5.93;;;1.35;;
34645;SDS011;20857;47.808;12.482;2022-10-28T00:43:43;5.72;;;1.70;;
34645;SDS011;20857;47.808;12.482;2022-10-28T00:48:54;5.82;;;1.60;;
34645;SDS011;20857;47.808;12.482;2022-10-28T00:51:30;3.60;;;1.30;;
34645;SDS011;20857;47.808;12.482;2022-10-28T00:53:57;5.03;;;1.30;;
34645;SDS011;20857;47.808;12.482;2022-10-28T00:56:24;3.13;;;1.75;;
34645;SDS011;20857;47.808;12.482;2022-10-28T00:58:52;5.35;;;1.30;;
34645;SDS011;20857;47.808;12.482;2022-10-28T01:01:21;7.85;;;1.55;;
34645;SDS011;20857;47.808;12.482;2022-10-28T01:03:46;5.47;;;1.50;;
34645;SDS011;20857;47.808;12.482;2022-10-28T01:06:12;3.45;;;1.70;;
34645;SDS011;20857;47.808;12.482;2022-10-28T01:08:38;6.70;;;1.63;;
34645;SDS011;20857;47.808;12.482;2022-10-28T01:18:54;3.33;;;1.42;;
34645;SDS011;20857;47.808;12.482;2022-10-28T01:21:33;5.25;;;1.40;;
34645;SDS011;20857;47.808;12.482;2022-10-28T01:30:02;3.92;;;1.13;;
34645;SDS011;20857;47.808;12.482;2022-10-28T01:40:38;6.95;;;1.70;;
34645;SDS011;20857;47.808;12.482;2022-10-28T01:46:38;6.60;;;1.63;;
34645;SDS011;20857;47.808;12.482;2022-10-28T01:49:10;4.60;;;1.40;;
34645;SDS011;20857;47.808;12.482;2022-10-28T01:51:43;3.20;;;1.30;;
34645;SDS011;20857;47.808;12.482;2022-10-28T01:54:13;5.35;;;1.40;;
34645;SDS011;20857;47.808;12.482;2022-10-28T01:56:42;5.70;;;1.50;;
34645;SDS011;20857;47.808;12.482;2022-10-28T01:59:16;2.08;;;1.17;;
34645;SDS011;20857;47.808;12.482;2022-10-28T02:01:45;2.90;;;1.35;;
34645;SDS011;20857;47.808;12.482;2022-10-28T02:04:10;2.28;;;1.13;;
34645;SDS011;20857;47.808;12.482;2022-10-28T02:06:36;4.15;;;1.55;;
34645;SDS011;20857;47.808;12.482;2022-10-28T02:09:09;1.88;;;1.30;;
34645;SDS011;20857;47.808;12.482;2022-10-28T02:17:15;4.68;;;1.25;;
34645;SDS011;20857;47.808;12.482;2022-10-28T02:19:47;2.75;;;1.13;;
34645;SDS011;20857;47.808;12.482;2022-10-28T02:22:36;4.07;;;1.33;;
34645;SDS011;20857;47.808;12.482;2022-10-28T02:27:43;5.05;;;1.98;;
34645;SDS011;20857;47.808;12.482;2022-10-28T02:32:51;2.60;;;1.27;;
34645;SDS011;20857;47.808;12.482;2022-10-28T02:35:31;2.80;;;1.58;;
34645;SDS011;20857;47.808;12.482;2022-10-28T02:38:04;1.95;;;1.25;;
34645;SDS011;20857;47.808;12.482;2022-10-28T02:43:03;5.78;;;1.83;;
34645;SDS011;20857;47.808;12.482;2022-10-28T02:45:33;2.65;;;0.98;;
34645;SDS011;20857;47.808;12.482;2022-10-28T02:48:05;2.72;;;1.30;;
34645;SDS011;20857;47.808;12.482;2022-10-28T02:50:35;8.53;;;1.50;;
34645;SDS011;20857;47.808;12.482;2022-10-28T02:53:10;3.75;;;1.50;;
34645;SDS011;20857;47.808;12.482;2022-10-28T02:55:40;4.63;;;1.10;;
34645;SDS011;20857;47.808;12.482;2022-10-28T02:58:08;2.10;;;1.17;;
34645;SDS011;20857;47.808;12.482;2022-10-28T03:00:35;9.50;;;1.92;;
34645;SDS011;20857;47.808;12.482;2022-10-28T03:03:01;5.18;;;1.50;;
34645;SDS011;20857;47.808;12.482;2022-10-28T03:05:28;3.83;;;1.80;;
34645;SDS011;20857;47.808;12.482;2022-10-28T03:07:53;3.60;;;1.33;;
34645;SDS011;20857;47.808;12.482;2022-10-28T03:10:19;9.13;;;1.77;;
34645;SDS011;20857;47.808;12.482;2022-10-28T03:12:44;4.28;;;1.30;;
34645;SDS011;20857;47.808;12.482;2022-10-28T03:15:10;4.72;;;1.20;;
34645;SDS011;20857;47.808;12.482;2022-10-28T03:17:35;4.75;;;1.67;;
34645;SDS011;20857;47.808;12.482;2022-10-28T03:20:01;4.47;;;1.33;;
34645;SDS011;20857;47.808;12.482;2022-10-28T03:22:26;1.60;;;1.02;;
34645;SDS011;20857;47.808;12.482;2022-10-28T03:24:52;3.33;;;1.50;;
34645;SDS011;20857;47.808;12.482;2022-10-28T03:27:18;3.45;;;1.77;;
34645;SDS011;20857;47.808;12.482;2022-10-28T03:29:43;1.92;;;1.33;;
34645;SDS011;20857;47.808;12.482;2022-10-28T03:32:10;2.25;;;1.08;;
34645;SDS011;20857;47.808;12.482;2022-10-28T03:34:35;2.60;;;1.48;;
34645;SDS011;20857;47.808;12.482;2022-10-28T03:37:01;6.10;;;1.17;;
34645;SDS011;20857;47.808;12.482;2022-10-28T03:39:27;6.95;;;1.40;;
34645;SDS011;20857;47.808;12.482;2022-10-28T03:41:52;2.47;;;1.08;;
34645;SDS011;20857;47.808;12.482;2022-10-28T03:44:18;3.25;;;1.38;;
34645;SDS011;20857;47.808;12.482;2022-10-28T03:46:43;1.80;;;1.05;;
34645;SDS011;20857;47.808;12.482;2022-10-28T03:49:09;3.72;;;1.40;;
34645;SDS011;20857;47.808;12.482;2022-10-28T03:51:34;8.05;;;1.70;;
34645;SDS011;20857;47.808;12.482;2022-10-28T03:54:00;6.43;;;1.88;;
34645;SDS011;20857;47.808;12.482;2022-10-28T03:56:26;4.18;;;1.58;;
34645;SDS011;20857;47.808;12.482;2022-10-28T03:58:51;6.85;;;2.15;;
34645;SDS011;20857;47.808;12.482;2022-10-28T04:01:17;3.88;;;1.35;;
34645;SDS011;20857;47.808;12.482;2022-10-28T04:03:42;2.72;;;1.33;;
34645;SDS011;20857;47.808;12.482;2022-10-28T04:06:08;5.60;;;1.60;;
34645;SDS011;20857;47.808;12.482;2022-10-28T04:08:36;3.20;;;1.20;;
34645;SDS011;20857;47.808;12.482;2022-10-28T04:11:02;4.22;;;1.52;;
34645;SDS011;20857;47.808;12.482;2022-10-28T04:13:28;5.20;;;1.77;;
34645;SDS011;20857;47.808;12.482;2022-10-28T04:15:53;7.43;;;1.73;;
34645;SDS011;20857;47.808;12.482;2022-10-28T04:18:19;4.15;;;1.20;;
34645;SDS011;20857;47.808;12.482;2022-10-28T04:20:45;3.75;;;1.70;;
34645;SDS011;20857;47.808;12.482;2022-10-28T04:23:14;5.18;;;1.35;;
34645;SDS011;20857;47.808;12.482;2022-10-28T04:25:40;5.40;;;1.92;;
34645;SDS011;20857;47.808;12.482;2022-10-28T04:28:06;4.80;;;1.50;;
34645;SDS011;20857;47.808;12.482;2022-10-28T04:30:32;6.43;;;1.48;;
34645;SDS011;20857;47.808;12.482;2022-10-28T04:32:57;4.20;;;1.20;;
34645;SDS011;20857;47.808;12.482;2022-10-28T04:35:23;9.70;;;1.80;;
34645;SDS011;20857;47.808;12.482;2022-10-28T04:37:49;3.30;;;1.67;;
34645;SDS011;20857;47.808;12.482;2022-10-28T04:40:14;3.50;;;1.60;;
34645;SDS011;20857;47.808;12.482;2022-10-28T04:42:40;1.98;;;1.38;;
34645;SDS011;20857;47.808;12.482;2022-10-28T04:45:06;2.65;;;1.38;;
34645;SDS011;20857;47.808;12.482;2022-10-28T04:47:32;4.63;;;1.92;;
34645;SDS011;20857;47.808;12.482;2022-10-28T04:49:58;6.03;;;1.45;;
34645;SDS011;20857;47.808;12.482;2022-10-28T04:52:23;5.22;;;1.40;;
34645;SDS011;20857;47.808;12.482;2022-10-28T04:54:49;5.50;;;1.20;;
34645;SDS011;20857;47.808;12.482;2022-10-28T04:57:14;4.68;;;1.27;;
34645;SDS011;20857;47.808;12.482;2022-10-28T04:59:40;6.80;;;2.50;;
34645;SDS011;20857;47.808;12.482;2022-10-28T05:02:05;3.00;;;1.10;;
34645;SDS011;20857;47.808;12.482;2022-10-28T05:04:31;3.60;;;1.52;;
34645;SDS011;20857;47.808;12.482;2022-10-28T05:06:56;1.38;;;1.23;;
34645;SDS011;20857;47.808;12.482;2022-10-28T05:09:22;5.13;;;1.73;;
34645;SDS011;20857;47.808;12.482;2022-10-28T05:11:48;3.95;;;1.40;;
34645;SDS011;20857;47.808;12.482;2022-10-28T05:14:13;4.00;;;1.40;;
34645;SDS011;20857;47.808;12.482;2022-10-28T05:16:39;4.68;;;1.58;;
34645;SDS011;20857;47.808;12.482;2022-10-28T05:19:04;6.50;;;1.40;;
34645;SDS011;20857;47.808;12.482;2022-10-28T05:21:30;3.85;;;1.50;;
34645;SDS011;20857;47.808;12.482;2022-10-28T05:23:55;4.88;;;1.75;;
34645;SDS011;20857;47.808;12.482;2022-10-28T05:26:21;4.32;;;1.30;;
34645;SDS011;20857;47.808;12.482;2022-10-28T05:28:50;6.38;;;1.65;;
34645;SDS011;20857;47.808;12.482;2022-10-28T05:31:16;4.00;;;1.40;;
34645;SDS011;20857;47.808;12.482;2022-10-28T05:33:42;3.53;;;1.55;;
34645;SDS011;20857;47.808;12.482;2022-10-28T05:36:08;3.42;;;1.48;;
34645;SDS011;20857;47.808;12.482;2022-10-28T05:38:34;2.20;;;1.00;;
34645;SDS011;20857;47.808;12.482;2022-10-28T05:40:59;7.38;;;1.40;;
34645;SDS011;20857;47.808;12.482;2022-10-28T05:43:25;5.70;;;1.95;;
34645;SDS011;20857;47.808;12.482;2022-10-28T05:45:51;5.65;;;1.65;;
34645;SDS011;20857;47.808;12.482;2022-10-28T05:48:17;2.70;;;1.23;;
34645;SDS011;20857;47.808;12.482;2022-10-28T05:50:43;5.28;;;1.83;;
34645;SDS011;20857;47.808;12.482;2022-10-28T05:53:09;1.77;;;1.20;;
34645;SDS011;20857;47.808;12.482;2022-10-28T05:55:34;5.78;;;1.58;;
34645;SDS011;20857;47.808;12.482;2022-10-28T05:58:00;7.15;;;1.65;;
34645;SDS011;20857;47.808;12.482;2022-10-28T06:00:27;4.07;;;1.70;;
34645;SDS011;20857;47.808;12.482;2022-10-28T06:03:00;3.78;;;1.70;;
34645;SDS011;20857;47.808;12.482;2022-10-28T06:05:39;2.17;;;1.38;;
34645;SDS011;20857;47.808;12.482;2022-10-28T06:08:07;4.32;;;1.83;;
34645;SDS011;20857;47.808;12.482;2022-10-28T06:10:35;7.18;;;1.38;;
34645;SDS011;20857;47.808;12.482;2022-10-28T06:13:00;9.27;;;2.55;;
34645;SDS011;20857;47.808;12.482;2022-10-28T06:15:26;5.03;;;1.70;;
34645;SDS011;20857;47.808;12.482;2022-10-28T06:17:51;5.90;;;1.98;;
34645;SDS011;20857;47.808;12.482;2022-10-28T06:20:17;7.43;;;1.75;;
34645;SDS011;20857;47.808;12.482;2022-10-28T06:22:50;2.38;;;1.55;;
34645;SDS011;20857;47.808;12.482;2022-10-28T06:25:17;4.80;;;1.45;;
34645;SDS011;20857;47.808;12.482;2022-10-28T06:27:50;6.80;;;1.48;;
34645;SDS011;20857;47.808;12.482;2022-10-28T06:30:17;4.57;;;1.30;;
34645;SDS011;20857;47.808;12.482;2022-10-28T06:32:42;2.53;;;1.80;;
34645;SDS011;20857;47.808;12.482;2022-10-28T06:35:08;2.35;;;1.35;;
34645;SDS011;20857;47.808;12.482;2022-10-28T06:37:33;3.58;;;1.20;;
34645;SDS011;20857;47.808;12.482;2022-10-28T06:39:59;6.05;;;1.25;;
34645;SDS011;20857;47.808;12.482;2022-10-28T06:42:25;2.80;;;1.40;;
34645;SDS011;20857;47.808;12.482;2022-10-28T06:44:50;4.15;;;1.23;;
34645;SDS011;20857;47.808;12.482;2022-10-28T06:47:16;5.38;;;1.98;;
34645;SDS011;20857;47.808;12.482;2022-10-28T06:49:42;2.30;;;1.40;;
34645;SDS011;20857;47.808;12.482;2022-10-28T06:52:07;5.82;;;1.45;;
34645;SDS011;20857;47.808;12.482;2022-10-28T06:54:33;4.57;;;1.38;;
34645;SDS011;20857;47.808;12.482;2022-10-28T06:56:58;3.47;;;1.67;;
34645;SDS011;20857;47.808;12.482;2022-10-28T06:59:24;3.72;;;1.50;;
34645;SDS011;20857;47.808;12.482;2022-10-28T07:01:49;5.50;;;1.88;;
34645;SDS011;20857;47.808;12.482;2022-10-28T07:04:15;2.63;;;1.45;;
34645;SDS011;20857;47.808;12.482;2022-10-28T07:06:41;2.42;;;1.27;;
34645;SDS011;20857;47.808;12.482;2022-10-28T07:09:06;7.03;;;1.58;;
34645;SDS011;20857;47.808;12.482;2022-10-28T07:11:34;1.58;;;1.17;;
34645;SDS011;20857;47.808;12.482;2022-10-28T07:14:00;2.97;;;1.55;;
34645;SDS011;20857;47.808;12.482;2022-10-28T07:16:26;4.20;;;1.42;;
34645;SDS011;20857;47.808;12.482;2022-10-28T07:18:51;4.18;;;1.25;;
34645;SDS011;20857;47.808;12.482;2022-10-28T07:21:17;6.88;;;1.05;;
34645;SDS011;20857;47.808;12.482;2022-10-28T07:23:42;6.93;;;1.63;;
34645;SDS011;20857;47.808;12.482;2022-10-28T07:26:10;1.65;;;1.10;;
34645;SDS011;20857;47.808;12.482;2022-10-28T07:28:35;2.22;;;1.48;;
34645;SDS011;20857;47.808;12.482;2022-10-28T07:31:01;4.20;;;1.17;;
34645;SDS011;20857;47.808;12.482;2022-10-28T07:33:28;5.80;;;1.23;;
34645;SDS011;20857;47.808;12.482;2022-10-28T07:35:54;1.70;;;1.08;;
34645;SDS011;20857;47.808;12.482;2022-10-28T07:38:20;3.67;;;1.23;;
34645;SDS011;20857;47.808;12.482;2022-10-28T07:40:46;8.45;;;1.40;;
34645;SDS011;20857;47.808;12.482;2022-10-28T07:43:12;5.13;;;1.77;;
34645;SDS011;20857;47.808;12.482;2022-10-28T07:45:37;5.45;;;1.23;;
34645;SDS011;20857;47.808;12.482;2022-10-28T07:48:03;2.08;;;1.10;;
34645;SDS011;20857;47.808;12.482;2022-10-28T07:50:30;3.78;;;1.48;;
34645;SDS011;20857;47.808;12.482;2022-10-28T07:52:55;4.38;;;1.05;;
34645;SDS011;20857;47.808;12.482;2022-10-28T07:55:21;3.47;;;1.40;;
34645;SDS011;20857;47.808;12.482;2022-10-28T07:57:46;3.22;;;1.33;;
34645;SDS011;20857;47.808;12.482;2022-10-28T08:00:12;7.25;;;1.50;;
34645;SDS011;20857;47.808;12.482;2022-10-28T08:02:38;3.40;;;1.10;;
34645;SDS011;20857;47.808;12.482;2022-10-28T08:05:04;3.40;;;1.38;;
34645;SDS011;20857;47.808;12.482;2022-10-28T08:07:30;5.78;;;1.85;;
34645;SDS011;20857;47.808;12.482;2022-10-28T08:09:56;6.72;;;1.02;;
34645;SDS011;20857;47.808;12.482;2022-10-28T08:12:22;2.42;;;1.52;;
34645;SDS011;20857;47.808;12.482;2022-10-28T08:14:48;2.67;;;1.15;;
34645;SDS011;20857;47.808;12.482;2022-10-28T08:17:13;3.00;;;1.45;;
34645;SDS011;20857;47.808;12.482;2022-10-28T08:19:39;2.88;;;1.25;;
34645;SDS011;20857;47.808;12.482;2022-10-28T08:22:05;4.10;;;1.40;;
34645;SDS011;20857;47.808;12.482;2022-10-28T08:24:31;3.30;;;1.00;;
34645;SDS011;20857;47.808;12.482;2022-10-28T08:26:56;3.22;;;1.20;;
34645;SDS011;20857;47.808;12.482;2022-10-28T08:29:22;3.75;;;1.10;;
34645;SDS011;20857;47.808;12.482;2022-10-28T08:31:48;4.72;;;1.20;;
34645;SDS011;20857;47.808;12.482;2022-10-28T08:34:13;4.05;;;1.15;;
34645;SDS011;20857;47.808;12.482;2022-10-28T08:36:39;3.20;;;0.95;;
34645;SDS011;20857;47.808;12.482;2022-10-28T08:39:04;1.90;;;1.35;;
34645;SDS011;20857;47.808;12.482;2022-10-28T08:49:31;4.35;;;1.65;;
34645;SDS011;20857;47.808;12.482;2022-10-28T08:54:46;2.60;;;1.38;;
34645;SDS011;20857;47.808;12.482;2022-10-28T08:57:17;3.53;;;0.85;;
34645;SDS011;20857;47.808;12.482;2022-10-28T08:59:46;5.10;;;1.17;;
34645;SDS011;20857;47.808;12.482;2022-10-28T09:02:20;4.88;;;1.42;;
34645;SDS011;20857;47.808;12.482;2022-10-28T09:04:50;4.97;;;1.40;;
34645;SDS011;20857;47.808;12.482;2022-10-28T09:07:24;3.15;;;1.08;;
34645;SDS011;20857;47.808;12.482;2022-10-28T09:09:50;2.63;;;1.10;;
34645;SDS011;20857;47.808;12.482;2022-10-28T09:12:26;3.08;;;1.13;;
34645;SDS011;20857;47.808;12.482;2022-10-28T09:15:29;3.33;;;1.23;;
34645;SDS011;20857;47.808;12.482;2022-10-28T09:18:16;5.70;;;1.25;;
34645;SDS011;20857;47.808;12.482;2022-10-28T09:36:00;6.65;;;1.20;;
34645;SDS011;20857;47.808;12.482;2022-10-28T09:38:34;3.95;;;1.65;;
34645;SDS011;20857;47.808;12.482;2022-10-28T09:41:12;4.43;;;1.45;;
34645;SDS011;20857;47.808;12.482;2022-10-28T09:43:48;7.72;;;1.20;;
34645;SDS011;20857;47.808;12.482;2022-10-28T09:46:17;2.92;;;1.00;;
34645;SDS011;20857;47.808;12.482;2022-10-28T09:48:51;8.23;;;1.45;;
34645;SDS011;20857;47.808;12.482;2022-10-28T09:54:01;2.85;;;1.23;;
34645;SDS011;20857;47.808;12.482;2022-10-28T09:56:27;5.30;;;1.13;;
34645;SDS011;20857;47.808;12.482;2022-10-28T09:58:55;5.88;;;1.48;;
34645;SDS011;20857;47.808;12.482;2022-10-28T10:01:23;4.18;;;0.85;;
34645;SDS011;20857;47.808;12.482;2022-10-28T10:03:50;5.55;;;0.93;;
34645;SDS011;20857;47.808;12.482;2022-10-28T10:08:48;4.85;;;1.13;;
34645;SDS011;20857;47.808;12.482;2022-10-28T10:11:20;2.33;;;1.00;;
34645;SDS011;20857;47.808;12.482;2022-10-28T10:14:09;7.70;;;0.95;;
34645;SDS011;20857;47.808;12.482;2022-10-28T10:16:47;5.47;;;1.30;;
34645;SDS011;20857;47.808;12.482;2022-10-28T10:27:16;5.50;;;1.25;;
34645;SDS011;20857;47.808;12.482;2022-10-28T10:29:47;2.75;;;1.30;;
34645;SDS011;20857;47.808;12.482;2022-10-28T10:32:36;5.68;;;1.10;;
34645;SDS011;20857;47.808;12.482;2022-10-28T10:37:58;3.55;;;0.95;;
34645;SDS011;20857;47.808;12.482;2022-10-28T10:40:30;4.20;;;1.25;;
34645;SDS011;20857;47.808;12.482;2022-10-28T10:45:47;3.55;;;1.20;;
34645;SDS011;20857;47.808;12.482;2022-10-28T10:48:25;5.65;;;1.38;;
34645;SDS011;20857;47.808;12.482;2022-10-28T10:51:32;5.00;;;1.10;;
34645;SDS011;20857;47.808;12.482;2022-10-28T10:57:06;2.38;;;1.10;;
34645;SDS011;20857;47.808;12.482;2022-10-28T10:59:43;4.07;;;1.30;;
34645;SDS011;20857;47.808;12.482;2022-10-28T11:02:43;3.30;;;0.80;;
34645;SDS011;20857;47.808;12.482;2022-10-28T11:05:06;2.47;;;1.02;;
34645;SDS011;20857;47.808;12.482;2022-10-28T11:07:34;5.38;;;1.20;;
34645;SDS011;20857;47.808;12.482;2022-10-28T11:10:01;6.20;;;1.38;;
34645;SDS011;20857;47.808;12.482;2022-10-28T11:14:59;3.67;;;1.02;;
34645;SDS011;20857;47.808;12.482;2022-10-28T11:17:28;4.63;;;1.08;;
34645;SDS011;20857;47.808;12.482;2022-10-28T11:19:56;7.20;;;1.35;;
34645;SDS011;20857;47.808;12.482;2022-10-28T11:22:34;4.80;;;1.35;;
34645;SDS011;20857;47.808;12.482;2022-10-28T11:28:29;5.28;;;1.25;;
34645;SDS011;20857;47.808;12.482;2022-10-28T11:33:52;8.55;;;1.00;;
34645;SDS011;20857;47.808;12.482;2022-10-28T11:36:39;2.80;;;1.42;;
34645;SDS011;20857;47.808;12.482;2022-10-28T11:39:19;3.90;;;1.30;;
34645;SDS011;20857;47.808;12.482;2022-10-28T11:44:55;10.15;;;1.52;;
34645;SDS011;20857;47.808;12.482;2022-10-28T11:47:46;4.78;;;1.13;;
34645;SDS011;20857;47.808;12.482;2022-10-28T11:50:39;5.15;;;1.17;;
34645;SDS011;20857;47.808;12.482;2022-10-28T12:06:51;5.75;;;1.20;;
34645;SDS011;20857;47.808;12.482;2022-10-28T12:12:14;6.35;;;1.40;;
34645;SDS011;20857;47.808;12.482;2022-10-28T12:14:46;10.05;;;1.50;;
34645;SDS011;20857;47.808;12.482;2022-10-28T12:17:27;4.40;;;0.95;;
34645;SDS011;20857;47.808;12.482;2022-10-28T12:20:10;7.22;;;1.38;;
34645;SDS011;20857;47.808;12.482;2022-10-28T12:22:54;4.75;;;1.58;;
34645;SDS011;20857;47.808;12.482;2022-10-28T12:25:32;3.88;;;1.08;;
34645;SDS011;20857;47.808;12.482;2022-10-28T12:30:33;3.78;;;1.40;;
34645;SDS011;20857;47.808;12.482;2022-10-28T12:35:46;3.70;;;1.23;;
34645;SDS011;20857;47.808;12.482;2022-10-28T12:38:37;6.03;;;1.40;;
34645;SDS011;20857;47.808;12.482;2022-10-28T12:41:14;6.32;;;1.45;;
34645;SDS011;20857;47.808;12.482;2022-10-28T12:49:33;2.33;;;1.27;;
34645;SDS011;20857;47.808;12.482;2022-10-28T12:57:18;3.15;;;1.20;;
34645;SDS011;20857;47.808;12.482;2022-10-28T13:00:00;11.75;;;1.95;;
34645;SDS011;20857;47.808;12.482;2022-10-28T13:02:42;3.85;;;1.17;;
34645;SDS011;20857;47.808;12.482;2022-10-28T13:05:26;6.35;;;1.42;;
34645;SDS011;20857;47.808;12.482;2022-10-28T13:25:00;8.40;;;1.33;;
34645;SDS011;20857;47.808;12.482;2022-10-28T13:27:56;5.88;;;1.27;;
34645;SDS011;20857;47.808;12.482;2022-10-28T13:30:23;15.57;;;2.28;;
34645;SDS011;20857;47.808;12.482;2022-10-28T13:33:06;7.05;;;1.50;;
34645;SDS011;20857;47.808;12.482;2022-10-28T13:35:40;8.98;;;1.80;;
34645;SDS011;20857;47.808;12.482;2022-10-28T13:38:10;4.50;;;1.35;;
34645;SDS011;20857;47.808;12.482;2022-10-28T13:43:08;5.93;;;1.52;;
34645;SDS011;20857;47.808;12.482;2022-10-28T13:46:04;7.30;;;1.10;;
34645;SDS011;20857;47.808;12.482;2022-10-28T13:48:42;7.95;;;1.40;;
34645;SDS011;20857;47.808;12.482;2022-10-28T13:53:37;6.68;;;1.48;;
34645;SDS011;20857;47.808;12.482;2022-10-28T14:04:19;8.55;;;1.80;;
34645;SDS011;20857;47.808;12.482;2022-10-28T14:09:28;3.63;;;1.00;;
34645;SDS011;20857;47.808;12.482;2022-10-28T14:12:30;6.20;;;1.10;;
34645;SDS011;20857;47.808;12.482;2022-10-28T14:14:55;7.18;;;1.33;;
34645;SDS011;20857;47.808;12.482;2022-10-28T14:17:33;5.90;;;1.20;;
34645;SDS011;20857;47.808;12.482;2022-10-28T14:20:05;5.28;;;1.50;;
34645;SDS011;20857;47.808;12.482;2022-10-28T14:22:44;3.97;;;1.50;;
34645;SDS011;20857;47.808;12.482;2022-10-28T14:28:47;10.38;;;1.70;;
34645;SDS011;20857;47.808;12.482;2022-10-28T14:31:40;4.40;;;1.27;;
34645;SDS011;20857;47.808;12.482;2022-10-28T14:49:25;3.65;;;1.15;;
34645;SDS011;20857;47.808;12.482;2022-10-28T14:51:54;6.65;;;1.30;;
34645;SDS011;20857;47.808;12.482;2022-10-28T14:54:25;2.85;;;1.13;;
34645;SDS011;20857;47.808;12.482;2022-10-28T14:56:56;6.70;;;1.15;;
34645;SDS011;20857;47.808;12.482;2022-10-28T14:59:23;4.15;;;1.25;;
34645;SDS011;20857;47.808;12.482;2022-10-28T15:01:54;6.13;;;1.77;;
34645;SDS011;20857;47.808;12.482;2022-10-28T15:04:28;3.55;;;1.02;;
34645;SDS011;20857;47.808;12.482;2022-10-28T15:06:54;4.78;;;1.25;;
34645;SDS011;20857;47.808;12.482;2022-10-28T15:09:21;3.63;;;1.10;;
34645;SDS011;20857;47.808;12.482;2022-10-28T15:11:51;8.52;;;1.52;;
34645;SDS011;20857;47.808;12.482;2022-10-28T15:14:39;3.10;;;1.45;;
34645;SDS011;20857;47.808;12.482;2022-10-28T15:17:10;6.68;;;1.52;;
34645;SDS011;20857;47.808;12.482;2022-10-28T15:19:41;12.40;;;1.88;;
34645;SDS011;20857;47.808;12.482;2022-10-28T15:22:16;3.85;;;1.60;;
34645;SDS011;20857;47.808;12.482;2022-10-28T15:27:28;3.50;;;1.13;;
34645;SDS011;20857;47.808;12.482;2022-10-28T15:29:59;5.55;;;1.33;;
34645;SDS011;20857;47.808;12.482;2022-10-28T15:32:28;6.97;;;2.00;;
34645;SDS011;20857;47.808;12.482;2022-10-28T15:34:56;7.45;;;2.28;;
34645;SDS011;20857;47.808;12.482;2022-10-28T15:37:23;8.43;;;2.13;;
34645;SDS011;20857;47.808;12.482;2022-10-28T15:45:27;3.92;;;1.80;;
34645;SDS011;20857;47.808;12.482;2022-10-28T15:47:54;7.18;;;1.63;;
34645;SDS011;20857;47.808;12.482;2022-10-28T15:50:26;5.32;;;1.60;;
34645;SDS011;20857;47.808;12.482;2022-10-28T15:55:34;2.60;;;1.27;;
34645;SDS011;20857;47.808;12.482;2022-10-28T16:00:54;3.63;;;1.35;;
34645;SDS011;20857;47.808;12.482;2022-10-28T16:06:04;2.47;;;1.63;;
34645;SDS011;20857;47.808;12.482;2022-10-28T16:08:30;2.80;;;1.75;;
34645;SDS011;20857;47.808;12.482;2022-10-28T16:11:02;6.57;;;1.80;;
34645;SDS011;20857;47.808;12.482;2022-10-28T16:13:37;6.38;;;1.30;;
34645;SDS011;20857;47.808;12.482;2022-10-28T16:16:11;4.05;;;1.90;;
34645;SDS011;20857;47.808;12.482;2022-10-28T16:18:48;6.55;;;2.00;;
34645;SDS011;20857;47.808;12.482;2022-10-28T16:21:22;5.55;;;1.70;;
34645;SDS011;20857;47.808;12.482;2022-10-28T16:23:53;9.27;;;2.45;;
34645;SDS011;20857;47.808;12.482;2022-10-28T16:26:26;4.13;;;2.20;;
34645;SDS011;20857;47.808;12.482;2022-10-28T16:28:52;12.25;;;4.88;;
34645;SDS011;20857;47.808;12.482;2022-10-28T16:31:19;15.00;;;5.00;;
34645;SDS011;20857;47.808;12.482;2022-10-28T16:33:46;10.13;;;3.72;;
34645;SDS011;20857;47.808;12.482;2022-10-28T16:36:12;8.48;;;2.78;;
34645;SDS011;20857;47.808;12.482;2022-10-28T16:38:38;7.45;;;2.28;;
34645;SDS011;20857;47.808;12.482;2022-10-28T16:43:41;3.88;;;1.67;;
34645;SDS011;20857;47.808;12.482;2022-10-28T16:46:08;5.40;;;1.83;;
34645;SDS011;20857;47.808;12.482;2022-10-28T16:48:34;9.15;;;1.98;;
34645;SDS011;20857;47.808;12.482;2022-10-28T16:51:01;5.93;;;2.20;;
34645;SDS011;20857;47.808;12.482;2022-10-28T16:53:29;5.35;;;2.15;;
34645;SDS011;20857;47.808;12.482;2022-10-28T16:55:55;6.85;;;2.08;;
34645;SDS011;20857;47.808;12.482;2022-10-28T16:58:26;3.90;;;2.35;;
34645;SDS011;20857;47.808;12.482;2022-10-28T17:00:53;11.38;;;2.92;;
34645;SDS011;20857;47.808;12.482;2022-10-28T17:03:19;7.18;;;2.13;;
34645;SDS011;20857;47.808;12.482;2022-10-28T17:05:45;8.05;;;2.63;;
34645;SDS011;20857;47.808;12.482;2022-10-28T17:08:12;8.20;;;1.92;;
34645;SDS011;20857;47.808;12.482;2022-10-28T17:10:39;6.10;;;2.03;;
34645;SDS011;20857;47.808;12.482;2022-10-28T17:13:06;12.13;;;2.95;;
34645;SDS011;20857;47.808;12.482;2022-10-28T17:15:54;8.95;;;2.40;;
34645;SDS011;20857;47.808;12.482;2022-10-28T17:18:20;8.48;;;2.35;;
34645;SDS011;20857;47.808;12.482;2022-10-28T17:20:56;6.43;;;1.80;;
34645;SDS011;20857;47.808;12.482;2022-10-28T17:23:26;4.35;;;1.80;;
34645;SDS011;20857;47.808;12.482;2022-10-28T17:25:59;10.23;;;2.20;;
34645;SDS011;20857;47.808;12.482;2022-10-28T17:28:26;6.80;;;1.98;;
34645;SDS011;20857;47.808;12.482;2022-10-28T17:30:51;4.95;;;2.20;;
34645;SDS011;20857;47.808;12.482;2022-10-28T17:33:17;10.48;;;2.38;;
34645;SDS011;20857;47.808;12.482;2022-10-28T17:35:43;9.68;;;2.58;;
34645;SDS011;20857;47.808;12.482;2022-10-28T17:38:08;3.90;;;2.22;;
34645;SDS011;20857;47.808;12.482;2022-10-28T17:40:34;7.55;;;1.73;;
34645;SDS011;20857;47.808;12.482;2022-10-28T17:43:00;10.95;;;2.50;;
34645;SDS011;20857;47.808;12.482;2022-10-28T17:45:25;4.47;;;1.67;;
34645;SDS011;20857;47.808;12.482;2022-10-28T17:47:51;6.20;;;2.13;;
34645;SDS011;20857;47.808;12.482;2022-10-28T17:50:17;5.95;;;2.05;;
34645;SDS011;20857;47.808;12.482;2022-10-28T17:52:42;6.47;;;2.20;;
34645;SDS011;20857;47.808;12.482;2022-10-28T17:55:08;10.65;;;1.95;;
34645;SDS011;20857;47.808;12.482;2022-10-28T17:57:34;3.10;;;2.10;;
34645;SDS011;20857;47.808;12.482;2022-10-28T17:59:59;7.50;;;2.45;;
34645;SDS011;20857;47.808;12.482;2022-10-28T18:02:25;8.43;;;2.10;;
34645;SDS011;20857;47.808;12.482;2022-10-28T18:04:50;6.80;;;2.55;;
34645;SDS011;20857;47.808;12.482;2022-10-28T18:07:16;6.13;;;2.58;;
34645;SDS011;20857;47.808;12.482;2022-10-28T18:09:42;6.22;;;2.20;;
34645;SDS011;20857;47.808;12.482;2022-10-28T18:12:08;3.20;;;1.63;;
34645;SDS011;20857;47.808;12.482;2022-10-28T18:14:35;6.88;;;1.60;;